createdAt,value
2017-05-13T00:00:23.737Z,999.99
2017-05-13T00:01:23.741Z,999.95
2017-05-13T00:02:23.751Z,1000
2017-05-13T00:03:23.758Z,1000.05
2017-05-13T00:04:23.765Z,1000
2017-05-13T00:05:23.772Z,1000.02
2017-05-13T00:06:23.778Z,1000
2017-05-13T00:07:23.788Z,1000.01
2017-05-13T00:08:23.794Z,1000
2017-05-13T00:09:23.802Z,1000.05
2017-05-13T00:10:23.808Z,1000.02
2017-05-13T00:11:23.815Z,1000.03
2017-05-13T00:12:23.823Z,1000.09
2017-05-13T00:13:23.829Z,1000.04
2017-05-13T00:14:23.838Z,1000.08
2017-05-13T00:15:23.843Z,1000.06
2017-05-13T00:16:23.850Z,1000.05
2017-05-13T00:17:23.859Z,1000.08
2017-05-13T00:18:23.866Z,1000.08
2017-05-13T00:19:23.872Z,1000.1
2017-05-13T00:20:23.878Z,1000.12
2017-05-13T00:21:23.887Z,1000.1
2017-05-13T00:22:23.894Z,1000.12
2017-05-13T00:23:23.901Z,1000.13
2017-05-13T00:24:23.908Z,1000.15
2017-05-13T00:25:23.965Z,1000.15
2017-05-13T00:26:23.922Z,1000.13
2017-05-13T00:27:23.930Z,1000.15
2017-05-13T00:28:23.937Z,1000.16
2017-05-13T00:29:23.945Z,1000.18
2017-05-13T00:30:23.950Z,1000.19
2017-05-13T00:31:23.958Z,1000.15
2017-05-13T00:32:23.966Z,1000.12
2017-05-13T00:33:23.975Z,1000.13
2017-05-13T00:34:23.979Z,1000.14
2017-05-13T00:35:23.988Z,1000.1
2017-05-13T00:36:23.993Z,1000.1
2017-05-13T00:37:24.001Z,1000.09
2017-05-13T00:38:24.009Z,1000.09
2017-05-13T00:39:24.016Z,1000.06
2017-05-13T00:40:24.073Z,1000.05
2017-05-13T00:41:24.030Z,1000.04
2017-05-13T00:42:24.037Z,1000.01
2017-05-13T00:43:24.045Z,1000.05
2017-05-13T00:44:24.052Z,1000.01
2017-05-13T00:45:24.058Z,1000.03
2017-05-13T00:46:24.066Z,1000
2017-05-13T00:47:24.072Z,1000.03
2017-05-13T00:48:24.081Z,1000.01
2017-05-13T00:49:24.127Z,1000.02
2017-05-13T00:50:24.093Z,999.99
2017-05-13T00:51:24.102Z,1000.02
2017-05-13T00:52:24.157Z,1000.01
2017-05-13T00:53:24.114Z,999.98
2017-05-13T00:54:24.172Z,999.96
2017-05-13T00:55:24.180Z,999.92
2017-05-13T00:56:24.138Z,999.97
2017-05-13T00:57:24.142Z,999.96
2017-05-13T00:58:24.151Z,999.91
2017-05-13T00:59:24.157Z,999.9
2017-05-13T01:00:24.163Z,999.89
2017-05-13T01:01:24.173Z,999.88
2017-05-13T01:02:24.179Z,999.91
2017-05-13T01:03:24.186Z,999.86
2017-05-13T01:04:24.193Z,999.91
2017-05-13T01:05:24.201Z,1000.02
2017-05-13T01:06:24.206Z,999.97
2017-05-13T01:07:24.214Z,999.97
2017-05-13T01:08:24.272Z,1000.07
2017-05-13T01:09:24.229Z,1000.04
2017-05-13T01:10:24.237Z,1000.04
2017-05-13T01:11:24.243Z,1000.06
2017-05-13T01:12:24.250Z,1000.04
2017-05-13T01:13:24.257Z,1000.07
2017-05-13T01:14:24.263Z,1000.11
2017-05-13T01:15:24.322Z,1000.09
2017-05-13T01:16:24.278Z,1000.08
2017-05-13T01:17:24.287Z,1000.07
2017-05-13T01:18:24.291Z,1000.12
2017-05-13T01:19:24.298Z,1000.12
2017-05-13T01:20:24.306Z,1000.16
2017-05-13T01:21:24.313Z,1000.19
2017-05-13T01:22:24.319Z,1000.18
2017-05-13T01:23:24.329Z,1000.16
2017-05-13T01:24:24.386Z,1000.12
2017-05-13T01:25:24.341Z,1000.14
2017-05-13T01:26:24.350Z,1000.15
2017-05-13T01:27:24.356Z,1000.14
2017-05-13T01:28:24.362Z,1000.17
2017-05-13T01:29:24.369Z,1000.18
2017-05-13T01:30:24.426Z,1000.18
2017-05-13T01:31:24.432Z,1000.15
2017-05-13T01:32:24.388Z,1000.21
2017-05-13T01:33:24.397Z,1000.2
2017-05-13T01:34:24.404Z,1000.22
2017-05-13T01:35:24.411Z,1000.25
2017-05-13T01:36:24.417Z,1000.24
2017-05-13T01:37:24.423Z,1000.22
2017-05-13T01:38:24.434Z,1000.23
2017-05-13T01:39:24.440Z,1000.26
2017-05-13T01:40:24.445Z,1000.27
2017-05-13T01:41:24.453Z,1000.23
2017-05-13T01:42:24.460Z,1000.25
2017-05-13T01:43:24.467Z,1000.29
2017-05-13T01:44:24.472Z,1000.27
2017-05-13T01:45:24.482Z,1000.28
2017-05-13T01:46:24.489Z,1000.33
2017-05-13T01:47:24.495Z,1000.3
2017-05-13T01:48:24.501Z,1000.32
2017-05-13T01:49:24.511Z,1000.28
2017-05-13T01:50:24.517Z,1000.29
2017-05-13T01:51:24.523Z,1000.3
2017-05-13T01:52:24.573Z,1000.28
2017-05-13T01:53:24.538Z,1000.34
2017-05-13T01:54:24.544Z,1000.34
2017-05-13T01:55:24.551Z,1000.35
2017-05-13T01:56:24.558Z,1000.37
2017-05-13T01:57:24.566Z,1000.33
2017-05-13T01:58:24.572Z,1000.34
2017-05-13T01:59:24.578Z,1000.34
2017-05-13T02:00:24.587Z,1000.36
2017-05-13T02:01:24.594Z,1000.39
2017-05-13T02:02:24.600Z,1000.34
2017-05-13T02:03:24.607Z,1000.41
2017-05-13T02:04:24.614Z,1000.38
2017-05-13T02:05:24.620Z,1000.41
2017-05-13T02:06:24.629Z,1000.39
2017-05-13T02:07:24.633Z,1000.4
2017-05-13T02:08:24.642Z,1000.41
2017-05-13T02:09:24.648Z,1000.39
2017-05-13T02:10:24.656Z,1000.41
2017-05-13T02:11:24.662Z,1000.43
2017-05-13T02:12:24.669Z,1000.45
2017-05-13T02:13:24.677Z,1000.4
2017-05-13T02:14:24.686Z,1000.48
2017-05-13T02:15:24.692Z,1000.5
2017-05-13T02:16:24.697Z,1000.5
2017-05-13T02:17:24.705Z,1000.52
2017-05-13T02:18:24.712Z,1000.53
2017-05-13T02:19:24.721Z,1000.57
2017-05-13T02:20:24.727Z,1000.63
2017-05-13T02:21:24.734Z,1000.59
2017-05-13T02:22:24.741Z,1000.6
2017-05-13T02:23:24.746Z,1000.61
2017-05-13T02:24:24.755Z,1000.62
2017-05-13T02:25:24.761Z,1000.62
2017-05-13T02:26:24.768Z,1000.62
2017-05-13T02:27:24.774Z,1000.66
2017-05-13T02:28:24.783Z,1000.65
2017-05-13T02:29:24.789Z,1000.66
2017-05-13T02:30:24.796Z,1000.61
2017-05-13T02:31:24.801Z,1000.63
2017-05-13T02:32:24.811Z,1000.64
2017-05-13T02:33:24.818Z,1000.63
2017-05-13T02:34:24.825Z,1000.65
2017-05-13T02:35:24.832Z,1000.68
2017-05-13T02:36:24.839Z,1000.65
2017-05-13T02:37:24.844Z,1000.66
2017-05-13T02:38:24.852Z,1000.68
2017-05-13T02:39:24.859Z,1000.69
2017-05-13T02:40:24.917Z,1000.64
2017-05-13T02:41:24.873Z,1000.7
2017-05-13T02:42:24.880Z,1000.72
2017-05-13T02:43:24.886Z,1000.71
2017-05-13T02:44:24.894Z,1000.68
2017-05-13T02:45:24.900Z,1000.7
2017-05-13T02:46:24.909Z,1000.73
2017-05-13T02:47:24.915Z,1000.7
2017-05-13T02:48:24.929Z,1000.7
2017-05-13T02:49:24.928Z,1000.7
2017-05-13T02:50:24.937Z,1000.7
2017-05-13T02:51:24.942Z,1000.74
2017-05-13T02:52:24.952Z,1000.64
2017-05-13T02:53:24.957Z,1000.69
2017-05-13T02:54:24.964Z,1000.67
2017-05-13T02:55:25.055Z,1000.67
2017-05-13T02:56:24.978Z,1000.74
2017-05-13T02:57:24.986Z,1000.69
2017-05-13T02:58:24.993Z,1000.71
2017-05-13T02:59:25.000Z,1000.7
2017-05-13T03:00:25.005Z,1000.67
2017-05-13T03:01:25.013Z,1000.67
2017-05-13T03:02:25.020Z,1000.62
2017-05-13T03:03:25.027Z,1000.63
2017-05-13T03:04:25.034Z,1000.64
2017-05-13T03:05:25.041Z,1000.6
2017-05-13T03:06:25.052Z,1000.64
2017-05-13T03:07:25.104Z,1000.61
2017-05-13T03:08:25.114Z,1000.59
2017-05-13T03:09:25.070Z,1000.57
2017-05-13T03:10:25.076Z,1000.58
2017-05-13T03:11:25.081Z,1000.61
2017-05-13T03:12:25.140Z,1000.6
2017-05-13T03:13:25.139Z,1000.61
2017-05-13T03:14:25.104Z,1000.6
2017-05-13T03:15:25.112Z,1000.62
2017-05-13T03:16:25.118Z,1000.62
2017-05-13T03:17:25.125Z,1000.58
2017-05-13T03:18:25.130Z,1000.62
2017-05-13T03:19:25.138Z,1000.65
2017-05-13T03:20:25.147Z,1000.65
2017-05-13T03:21:25.154Z,1000.71
2017-05-13T03:22:25.160Z,1000.68
2017-05-13T03:23:25.166Z,1000.69
2017-05-13T03:24:25.174Z,1000.69
2017-05-13T03:25:25.182Z,1000.68
2017-05-13T03:26:25.186Z,1000.71
2017-05-13T03:27:25.196Z,1000.71
2017-05-13T03:28:25.202Z,1000.72
2017-05-13T03:29:25.209Z,1000.75
2017-05-13T03:30:25.216Z,1000.71
2017-05-13T03:31:25.223Z,1000.77
2017-05-13T03:32:25.229Z,1000.78
2017-05-13T03:33:25.240Z,1000.82
2017-05-13T03:34:25.244Z,1000.84
2017-05-13T03:35:25.251Z,1000.87
2017-05-13T03:36:25.257Z,1000.87
2017-05-13T03:37:25.264Z,1000.92
2017-05-13T03:38:25.273Z,1000.93
2017-05-13T03:39:25.278Z,1000.93
2017-05-13T03:40:25.285Z,1000.97
2017-05-13T03:41:25.342Z,1000.97
2017-05-13T03:42:25.301Z,1000.97
2017-05-13T03:43:25.309Z,1000.98
2017-05-13T03:44:25.313Z,1001.02
2017-05-13T03:45:25.318Z,1001.05
2017-05-13T03:46:25.327Z,1001
2017-05-13T03:47:25.335Z,1001.07
2017-05-13T03:48:25.342Z,1001.04
2017-05-13T03:49:25.346Z,1001.09
2017-05-13T03:50:25.356Z,1001.09
2017-05-13T03:51:25.363Z,1001.1
2017-05-13T03:52:25.370Z,1001.1
2017-05-13T03:53:25.378Z,1001.1
2017-05-13T03:54:25.385Z,1001.1
2017-05-13T03:55:25.392Z,1001.13
2017-05-13T03:56:25.447Z,1001.1
2017-05-13T03:57:25.406Z,1001.11
2017-05-13T03:58:25.411Z,1001.11
2017-05-13T03:59:25.418Z,1001.12
2017-05-13T04:00:25.425Z,1001.15
2017-05-13T04:01:25.432Z,1001.14
2017-05-13T04:02:25.439Z,1001.19
2017-05-13T04:03:25.446Z,1001.18
2017-05-13T04:04:25.453Z,1001.2
2017-05-13T04:05:25.460Z,1001.21
2017-05-13T04:06:25.465Z,1001.21
2017-05-13T04:07:25.473Z,1001.24
2017-05-13T04:08:25.489Z,1001.24
2017-05-13T04:09:25.489Z,1001.27
2017-05-13T04:10:25.494Z,1001.34
2017-05-13T04:11:25.501Z,1001.3
2017-05-13T04:12:25.510Z,1001.32
2017-05-13T04:13:25.517Z,1001.35
2017-05-13T04:14:25.525Z,1001.37
2017-05-13T04:15:25.533Z,1001.31
2017-05-13T04:16:25.535Z,1001.36
2017-05-13T04:17:25.544Z,1001.37
2017-05-13T04:18:25.550Z,1001.34
2017-05-13T04:19:25.558Z,1001.43
2017-05-13T04:20:25.564Z,1001.42
2017-05-13T04:21:25.571Z,1001.44
2017-05-13T04:22:25.577Z,1001.4
2017-05-13T04:23:25.634Z,1001.43
2017-05-13T04:24:25.591Z,1001.42
2017-05-13T04:25:25.598Z,1001.45
2017-05-13T04:26:25.606Z,1001.46
2017-05-13T04:27:25.612Z,1001.5
2017-05-13T04:28:25.671Z,1001.51
2017-05-13T04:29:25.626Z,1001.45
2017-05-13T04:30:25.634Z,1001.5
2017-05-13T04:31:25.639Z,1001.47
2017-05-13T04:32:25.646Z,1001.53
2017-05-13T04:33:25.656Z,1001.53
2017-05-13T04:34:25.661Z,1001.49
2017-05-13T04:35:25.668Z,1001.51
2017-05-13T04:36:25.675Z,1001.52
2017-05-13T04:37:25.681Z,1001.53
2017-05-13T04:38:25.689Z,1001.58
2017-05-13T04:39:25.695Z,1001.57
2017-05-13T04:40:25.702Z,1001.57
2017-05-13T04:41:25.710Z,1001.56
2017-05-13T04:42:25.717Z,1001.6
2017-05-13T04:43:25.724Z,1001.59
2017-05-13T04:44:25.731Z,1001.61
2017-05-13T04:45:25.739Z,1001.6
2017-05-13T04:46:25.744Z,1001.65
2017-05-13T04:47:25.752Z,1001.64
2017-05-13T04:48:25.760Z,1001.64
2017-05-13T04:49:25.816Z,1001.68
2017-05-13T04:50:25.771Z,1001.74
2017-05-13T04:51:25.780Z,1001.92
2017-05-13T04:52:25.788Z,1001.96
2017-05-13T04:53:25.794Z,1001.81
2017-05-13T04:54:25.801Z,1001.8
2017-05-13T04:55:25.808Z,1001.8
2017-05-13T04:56:25.865Z,1002.08
2017-05-13T04:57:25.822Z,1002
2017-05-13T04:58:25.830Z,1002.05
2017-05-13T04:59:25.837Z,1001.92
2017-05-13T05:00:25.844Z,1001.82
2017-05-13T05:01:25.851Z,1001.88
2017-05-13T05:02:25.859Z,1001.94
2017-05-13T05:03:25.868Z,1001.8
2017-05-13T05:04:25.873Z,1001.78
2017-05-13T05:05:25.881Z,1001.77
2017-05-13T05:06:25.887Z,1001.85
2017-05-13T05:07:25.897Z,1001.89
2017-05-13T05:08:25.903Z,1001.87
2017-05-13T05:09:25.912Z,1001.88
2017-05-13T05:10:25.918Z,1001.91
2017-05-13T05:11:25.925Z,1001.89
2017-05-13T05:12:25.932Z,1001.9
2017-05-13T05:13:25.990Z,1001.88
2017-05-13T05:14:25.948Z,1001.92
2017-05-13T05:15:25.952Z,1001.92
2017-05-13T05:16:25.961Z,1001.95
2017-05-13T05:17:26.018Z,1001.91
2017-05-13T05:18:25.977Z,1001.92
2017-05-13T05:19:25.983Z,1001.96
2017-05-13T05:20:25.991Z,1001.97
2017-05-13T05:21:25.997Z,1002
2017-05-13T05:22:26.004Z,1002
2017-05-13T05:23:26.013Z,1002.02
2017-05-13T05:24:26.020Z,1002.01
2017-05-13T05:25:26.027Z,1002.07
2017-05-13T05:26:26.033Z,1002.05
2017-05-13T05:27:26.039Z,1002.08
2017-05-13T05:28:26.048Z,1002.06
2017-05-13T05:29:26.056Z,1002.06
2017-05-13T05:30:26.062Z,1002.06
2017-05-13T05:31:26.070Z,1002.06
2017-05-13T05:32:26.077Z,1002.09
2017-05-13T05:33:26.083Z,1002.09
2017-05-13T05:34:26.090Z,1002.1
2017-05-13T05:35:26.098Z,1002.11
2017-05-13T05:36:26.107Z,1002.14
2017-05-13T05:37:26.112Z,1002.12
2017-05-13T05:38:26.120Z,1002.16
2017-05-13T05:39:26.128Z,1002.21
2017-05-13T05:40:26.134Z,1002.16
2017-05-13T05:41:26.141Z,1002.19
2017-05-13T05:42:26.152Z,1002.23
2017-05-13T05:43:26.206Z,1002.19
2017-05-13T05:44:26.161Z,1002.23
2017-05-13T05:45:26.169Z,1002.22
2017-05-13T05:46:26.177Z,1002.22
2017-05-13T05:47:26.183Z,1002.26
2017-05-13T05:48:26.191Z,1002.26
2017-05-13T05:49:26.198Z,1002.28
2017-05-13T05:50:26.205Z,1002.28
2017-05-13T05:51:26.213Z,1002.33
2017-05-13T05:52:26.219Z,1002.32
2017-05-13T05:53:26.276Z,1002.3
2017-05-13T05:54:26.235Z,1002.34
2017-05-13T05:55:26.240Z,1002.34
2017-05-13T05:56:26.249Z,1002.4
2017-05-13T05:57:26.258Z,1002.39
2017-05-13T05:58:26.263Z,1002.41
2017-05-13T05:59:26.270Z,1002.41
2017-05-13T06:00:26.276Z,1002.46
2017-05-13T06:01:26.285Z,1002.45
2017-05-13T06:02:26.293Z,1002.5
2017-05-13T06:03:26.297Z,1002.51
2017-05-13T06:04:26.306Z,1002.53
2017-05-13T06:05:26.313Z,1002.51
2017-05-13T06:06:26.320Z,1002.54
2017-05-13T06:07:26.327Z,1002.52
2017-05-13T06:08:26.336Z,1002.56
2017-05-13T06:09:26.344Z,1002.58
2017-05-13T06:10:26.400Z,1002.65
2017-05-13T06:11:26.358Z,1002.62
2017-05-13T06:12:26.365Z,1002.65
2017-05-13T06:13:26.372Z,1002.68
2017-05-13T06:14:26.381Z,1003.1
2017-05-13T06:15:26.387Z,1003.52
2017-05-13T06:16:26.395Z,1003.57
2017-05-13T06:17:26.403Z,1002.87
2017-05-13T06:18:26.411Z,1003.61
2017-05-13T06:19:26.418Z,1003.56
2017-05-13T06:20:26.426Z,1003.7
2017-05-13T06:21:26.435Z,1003.9
2017-05-13T06:22:26.444Z,1003.77
2017-05-13T06:23:26.453Z,1003.94
2017-05-13T06:24:26.462Z,1003.98
2017-05-13T06:25:26.469Z,1004.02
2017-05-13T06:26:26.484Z,1003.97
2017-05-13T06:27:26.489Z,1004.06
2017-05-13T06:28:26.498Z,1004.09
2017-05-13T06:29:26.508Z,1004.1
2017-05-13T06:30:26.518Z,1004.02
2017-05-13T06:31:26.529Z,1004.06
2017-05-13T06:32:26.536Z,1004.04
2017-05-13T06:33:26.547Z,1004.09
2017-05-13T06:34:26.607Z,1004.16
2017-05-13T06:35:26.594Z,1004.15
2017-05-13T06:36:26.626Z,1004.18
2017-05-13T06:37:26.587Z,1004.19
2017-05-13T06:38:26.597Z,1004.19
2017-05-13T06:39:26.606Z,1004.2
2017-05-13T06:40:26.618Z,1004.23
2017-05-13T06:41:26.629Z,1004.17
2017-05-13T06:42:26.639Z,1003.28
2017-05-13T06:43:26.647Z,1003.75
2017-05-13T06:44:26.658Z,1003.01
2017-05-13T06:45:26.669Z,1003.83
2017-05-13T06:46:26.680Z,1004.43
2017-05-13T06:47:26.687Z,1004.44
2017-05-13T06:48:26.698Z,1004.51
2017-05-13T06:49:26.709Z,1004.55
2017-05-13T06:50:26.718Z,1004.66
2017-05-13T06:51:26.730Z,1004.64
2017-05-13T06:52:26.783Z,1004.68
2017-05-13T06:53:26.749Z,1004.64
2017-05-13T06:54:26.760Z,1004.83
2017-05-13T06:55:26.770Z,1004.94
2017-05-13T06:56:26.781Z,1004.87
2017-05-13T06:57:26.794Z,1004.76
2017-05-13T06:58:26.804Z,1004.65
2017-05-13T06:59:26.815Z,1004.7
2017-05-13T07:00:26.828Z,1004.95
2017-05-13T07:01:26.835Z,1005.05
2017-05-13T07:02:26.849Z,1005.16
2017-05-13T07:03:26.860Z,1005.14
2017-05-13T07:04:26.871Z,1005.15
2017-05-13T07:05:26.881Z,1005.16
2017-05-13T07:06:26.894Z,1005.15
2017-05-13T07:07:26.905Z,1005.17
2017-05-13T07:08:26.915Z,1005.11
2017-05-13T07:09:26.927Z,1005.08
2017-05-13T07:10:26.939Z,1005
2017-05-13T07:11:26.949Z,1004.97
2017-05-13T07:12:26.961Z,1005
2017-05-13T07:13:26.973Z,1005.03
2017-05-13T07:14:26.985Z,1005.03
2017-05-13T07:15:26.997Z,1004.88
2017-05-13T07:16:27.007Z,1004.85
2017-05-13T07:17:27.020Z,1004.86
2017-05-13T07:18:27.030Z,1004.86
2017-05-13T07:19:27.041Z,1004.89
2017-05-13T07:20:27.053Z,1004.91
2017-05-13T07:21:27.065Z,1004.91
2017-05-13T07:22:27.078Z,1004.87
2017-05-13T07:23:27.088Z,1004.85
2017-05-13T07:24:27.100Z,1004.92
2017-05-13T07:25:27.113Z,1004.73
2017-05-13T07:26:27.174Z,1004.07
2017-05-13T07:27:27.135Z,1003.56
2017-05-13T07:28:27.146Z,1003.5
2017-05-13T07:29:27.158Z,1003.51
2017-05-13T07:30:27.169Z,1003.53
2017-05-13T07:31:27.179Z,1003.51
2017-05-13T07:32:27.188Z,1003.56
2017-05-13T07:33:27.198Z,1003.59
2017-05-13T07:34:27.207Z,1003.55
2017-05-13T07:35:27.218Z,1003.64
2017-05-13T07:36:27.224Z,1003.59
2017-05-13T07:37:27.237Z,1003.63
2017-05-13T07:38:27.295Z,1003.62
2017-05-13T07:39:27.253Z,1003.61
2017-05-13T07:40:27.262Z,1003.6
2017-05-13T07:41:27.271Z,1003.66
2017-05-13T07:42:27.280Z,1003.65
2017-05-13T07:43:27.289Z,1003.64
2017-05-13T07:44:27.297Z,1003.64
2017-05-13T07:45:27.306Z,1003.66
2017-05-13T07:46:27.314Z,1003.67
2017-05-13T07:47:27.322Z,1003.63
2017-05-13T07:48:27.331Z,1003.62
2017-05-13T07:49:27.339Z,1003.7
2017-05-13T07:50:27.346Z,1003.71
2017-05-13T07:51:27.358Z,1003.7
2017-05-13T07:52:27.362Z,1003.75
2017-05-13T07:53:27.374Z,1003.82
2017-05-13T07:54:27.382Z,1003.8
2017-05-13T07:55:27.389Z,1003.77
2017-05-13T07:56:27.448Z,1003.83
2017-05-13T07:57:27.405Z,1003.89
2017-05-13T07:58:27.414Z,1003.89
2017-05-13T07:59:27.422Z,1003.86
2017-05-13T08:00:27.430Z,1003.83
2017-05-13T08:01:27.488Z,1003.86
2017-05-13T08:02:27.496Z,1003.91
2017-05-13T08:03:27.452Z,1003.88
2017-05-13T08:04:27.462Z,1003.89
2017-05-13T08:05:27.472Z,1003.89
2017-05-13T08:06:27.479Z,1004.02
2017-05-13T08:07:27.483Z,1003.91
2017-05-13T08:08:27.494Z,1003.96
2017-05-13T08:09:27.502Z,1003.98
2017-05-13T08:10:27.560Z,1003.97
2017-05-13T08:11:27.517Z,1003.92
2017-05-13T08:12:27.525Z,1003.96
2017-05-13T08:13:27.533Z,1004
2017-05-13T08:14:27.540Z,1003.96
2017-05-13T08:15:27.548Z,1003.96
2017-05-13T08:16:27.559Z,1004.02
2017-05-13T08:17:27.576Z,1004
2017-05-13T08:18:27.571Z,1004.02
2017-05-13T08:19:27.580Z,1004.05
2017-05-13T08:20:27.588Z,1004.05
2017-05-13T08:21:27.596Z,1004.15
2017-05-13T08:22:27.603Z,1004.08
2017-05-13T08:23:27.661Z,1004.12
2017-05-13T08:24:27.618Z,1004.09
2017-05-13T08:25:27.625Z,1004.09
2017-05-13T08:26:27.633Z,1004.15
2017-05-13T08:27:27.640Z,1004.16
2017-05-13T08:28:27.653Z,1004.15
2017-05-13T08:29:27.656Z,1004.21
2017-05-13T08:30:27.664Z,1004.19
2017-05-13T08:31:27.673Z,1004.19
2017-05-13T08:32:27.680Z,1004.29
2017-05-13T08:33:27.689Z,1004.27
2017-05-13T08:34:27.695Z,1004.3
2017-05-13T08:35:27.704Z,1004.33
2017-05-13T08:36:27.711Z,1004.28
2017-05-13T08:37:27.719Z,1004.24
2017-05-13T08:38:27.728Z,1004.28
2017-05-13T08:39:27.734Z,1004.27
2017-05-13T08:40:27.744Z,1004.3
2017-05-13T08:41:27.751Z,1004.35
2017-05-13T08:42:27.757Z,1004.34
2017-05-13T08:43:27.764Z,1004.33
2017-05-13T08:44:27.771Z,1004.35
2017-05-13T08:45:27.780Z,1004.41
2017-05-13T08:46:27.788Z,1004.42
2017-05-13T08:47:27.796Z,1004.41
2017-05-13T08:48:27.804Z,1004.39
2017-05-13T08:49:27.811Z,1004.36
2017-05-13T08:50:27.870Z,1004.39
2017-05-13T08:51:27.876Z,1004.43
2017-05-13T08:52:27.833Z,1004.42
2017-05-13T08:53:27.841Z,1004.48
2017-05-13T08:54:27.849Z,1004.49
2017-05-13T08:55:27.856Z,1004.44
2017-05-13T08:56:27.865Z,1004.51
2017-05-13T08:57:27.872Z,1004.51
2017-05-13T08:58:27.879Z,1004.52
2017-05-13T08:59:27.887Z,1004.5
2017-05-13T09:00:27.895Z,1004.62
2017-05-13T09:01:27.903Z,1004.62
2017-05-13T09:02:27.911Z,1004.62
2017-05-13T09:03:27.919Z,1004.61
2017-05-13T09:04:27.925Z,1004.69
2017-05-13T09:05:27.932Z,1004.75
2017-05-13T09:06:27.940Z,1004.72
2017-05-13T09:07:27.948Z,1004.64
2017-05-13T09:08:27.955Z,1004.64
2017-05-13T09:09:27.966Z,1004.67
2017-05-13T09:10:27.971Z,1004.67
2017-05-13T09:11:27.983Z,1004.66
2017-05-13T09:12:27.988Z,1004.68
2017-05-13T09:13:27.995Z,1004.71
2017-05-13T09:14:28.003Z,1004.72
2017-05-13T09:15:28.010Z,1004.71
2017-05-13T09:16:28.019Z,1004.72
2017-05-13T09:17:28.026Z,1004.76
2017-05-13T09:18:28.033Z,1004.8
2017-05-13T09:19:28.041Z,1004.78
2017-05-13T09:20:28.049Z,1004.77
2017-05-13T09:21:28.055Z,1004.83
2017-05-13T09:22:28.064Z,1004.83
2017-05-13T09:23:28.072Z,1004.88
2017-05-13T09:24:28.079Z,1004.89
2017-05-13T09:25:28.136Z,1004.85
2017-05-13T09:26:28.093Z,1004.88
2017-05-13T09:27:28.103Z,1004.9
2017-05-13T09:28:28.108Z,1004.84
2017-05-13T09:29:28.118Z,1004.9
2017-05-13T09:30:28.127Z,1004.92
2017-05-13T09:31:28.133Z,1004.89
2017-05-13T09:32:28.139Z,1004.96
2017-05-13T09:33:28.147Z,1004.94
2017-05-13T09:34:28.155Z,1004.88
2017-05-13T09:35:28.163Z,1004.91
2017-05-13T09:36:28.171Z,1005.01
2017-05-13T09:37:28.178Z,1005.01
2017-05-13T09:38:28.184Z,1004.97
2017-05-13T09:39:28.195Z,1004.99
2017-05-13T09:40:28.201Z,1004.99
2017-05-13T09:41:28.209Z,1005
2017-05-13T09:42:28.216Z,1004.94
2017-05-13T09:43:28.227Z,1004.97
2017-05-13T09:44:28.234Z,1004.95
2017-05-13T09:45:28.241Z,1004.94
2017-05-13T09:46:28.249Z,1004.91
2017-05-13T09:47:28.256Z,1004.95
2017-05-13T09:48:28.264Z,1004.91
2017-05-13T09:49:28.269Z,1004.95
2017-05-13T09:50:28.279Z,1004.92
2017-05-13T09:51:28.286Z,1004.86
2017-05-13T09:52:28.294Z,1004.85
2017-05-13T09:53:28.302Z,1004.85
2017-05-13T09:54:28.310Z,1004.88
2017-05-13T09:55:28.317Z,1004.92
2017-05-13T09:56:28.325Z,1004.94
2017-05-13T09:57:28.332Z,1004.9
2017-05-13T09:58:28.339Z,1004.91
2017-05-13T09:59:28.397Z,1004.93
2017-05-13T10:00:28.400Z,1004.92
2017-05-13T10:01:28.362Z,1004.9
2017-05-13T10:02:28.370Z,1004.85
2017-05-13T10:03:28.427Z,1004.82
2017-05-13T10:04:28.385Z,1004.93
2017-05-13T10:05:28.393Z,1004.84
2017-05-13T10:06:28.400Z,1004.88
2017-05-13T10:07:28.455Z,1004.86
2017-05-13T10:08:28.416Z,1004.87
2017-05-13T10:09:28.425Z,1004.89
2017-05-13T10:10:28.431Z,1004.89
2017-05-13T10:11:28.439Z,1004.85
2017-05-13T10:12:28.448Z,1004.85
2017-05-13T10:13:28.455Z,1004.82
2017-05-13T10:14:28.465Z,1004.89
2017-05-13T10:15:28.469Z,1004.8
2017-05-13T10:16:28.477Z,1004.84
2017-05-13T10:17:28.577Z,1004.87
2017-05-13T10:18:28.552Z,1004.84
2017-05-13T10:19:28.501Z,1004.79
2017-05-13T10:20:28.507Z,1004.78
2017-05-13T10:21:28.516Z,1004.77
2017-05-13T10:22:28.523Z,1004.81
2017-05-13T10:23:28.532Z,1004.82
2017-05-13T10:24:28.538Z,1004.83
2017-05-13T10:25:28.547Z,1004.88
2017-05-13T10:26:28.554Z,1004.81
2017-05-13T10:27:28.612Z,1004.88
2017-05-13T10:28:28.570Z,1004.88
2017-05-13T10:29:28.578Z,1004.86
2017-05-13T10:30:28.585Z,1004.91
2017-05-13T10:31:28.592Z,1004.87
2017-05-13T10:32:28.602Z,1004.93
2017-05-13T10:33:28.607Z,1004.88
2017-05-13T10:34:28.615Z,1004.89
2017-05-13T10:35:28.624Z,1004.85
2017-05-13T10:36:28.631Z,1004.82
2017-05-13T10:37:28.637Z,1004.85
2017-05-13T10:38:28.645Z,1004.8
2017-05-13T10:39:28.653Z,1004.81
2017-05-13T10:40:28.660Z,1004.81
2017-05-13T10:41:28.670Z,1004.85
2017-05-13T10:42:28.678Z,1004.74
2017-05-13T10:43:28.685Z,1004.8
2017-05-13T10:44:28.692Z,1004.8
2017-05-13T10:45:28.700Z,1004.91
2017-05-13T10:46:28.712Z,1004.89
2017-05-13T10:47:28.717Z,1004.89
2017-05-13T10:48:28.725Z,1004.87
2017-05-13T10:49:28.730Z,1004.84
2017-05-13T10:50:28.739Z,1004.87
2017-05-13T10:51:28.746Z,1004.9
2017-05-13T10:52:28.753Z,1004.88
2017-05-13T10:53:28.761Z,1004.83
2017-05-13T10:54:28.768Z,1004.85
2017-05-13T10:55:28.776Z,1004.86
2017-05-13T10:56:28.834Z,1004.79
2017-05-13T10:57:28.792Z,1004.87
2017-05-13T10:58:28.798Z,1004.86
2017-05-13T10:59:28.806Z,1004.81
2017-05-13T11:00:28.812Z,1004.87
2017-05-13T11:01:28.822Z,1004.86
2017-05-13T11:02:28.829Z,1004.85
2017-05-13T11:03:28.837Z,1004.86
2017-05-13T11:04:28.870Z,1004.8
2017-05-13T11:05:28.852Z,1004.81
2017-05-13T11:06:28.859Z,1004.8
2017-05-13T11:07:28.888Z,1004.83
2017-05-13T11:08:28.924Z,1004.79
2017-05-13T11:09:28.882Z,1004.81
2017-05-13T11:10:28.891Z,1004.77
2017-05-13T11:11:28.897Z,1004.75
2017-05-13T11:12:28.958Z,1004.75
2017-05-13T11:13:28.914Z,1004.75
2017-05-13T11:14:28.922Z,1004.71
2017-05-13T11:15:28.982Z,1004.69
2017-05-13T11:16:29.238Z,1004.75
2017-05-13T11:17:28.944Z,1004.73
2017-05-13T11:18:28.953Z,1004.77
2017-05-13T11:19:28.960Z,1004.74
2017-05-13T11:20:28.967Z,1004.66
2017-05-13T11:21:28.974Z,1004.68
2017-05-13T11:22:28.982Z,1004.65
2017-05-13T11:23:28.989Z,1004.7
2017-05-13T11:24:28.998Z,1004.76
2017-05-13T11:25:29.006Z,1004.7
2017-05-13T11:26:29.015Z,1004.68
2017-05-13T11:27:29.021Z,1004.63
2017-05-13T11:28:29.029Z,1004.67
2017-05-13T11:29:29.036Z,1004.71
2017-05-13T11:30:29.043Z,1004.68
2017-05-13T11:31:29.055Z,1004.67
2017-05-13T11:32:29.058Z,1004.65
2017-05-13T11:33:29.066Z,1004.64
2017-05-13T11:34:29.074Z,1004.64
2017-05-13T11:35:29.082Z,1004.7
2017-05-13T11:36:29.089Z,1004.64
2017-05-13T11:37:29.098Z,1004.65
2017-05-13T11:38:29.105Z,1004.75
2017-05-13T11:39:29.126Z,1004.71
2017-05-13T11:40:29.120Z,1004.69
2017-05-13T11:41:29.127Z,1004.7
2017-05-13T11:42:29.186Z,1004.69
2017-05-13T11:43:29.145Z,1004.7
2017-05-13T11:44:29.152Z,1004.72
2017-05-13T11:45:29.161Z,1004.75
2017-05-13T11:46:29.167Z,1004.73
2017-05-13T11:47:29.176Z,1004.76
2017-05-13T11:48:29.183Z,1004.72
2017-05-13T11:49:29.190Z,1004.73
2017-05-13T11:50:29.198Z,1004.74
2017-05-13T11:51:29.220Z,1004.74
2017-05-13T11:52:29.215Z,1004.75
2017-05-13T11:53:29.270Z,1004.73
2017-05-13T11:54:29.228Z,1004.76
2017-05-13T11:55:29.237Z,1004.79
2017-05-13T11:56:29.243Z,1004.78
2017-05-13T11:57:29.253Z,1004.76
2017-05-13T11:58:29.258Z,1004.75
2017-05-13T11:59:29.267Z,1004.75
2017-05-13T12:00:29.274Z,1004.78
2017-05-13T12:01:29.282Z,1004.82
2017-05-13T12:02:29.288Z,1004.79
2017-05-13T12:03:29.297Z,1004.85
2017-05-13T12:04:29.303Z,1004.83
2017-05-13T12:05:29.312Z,1004.86
2017-05-13T12:06:29.370Z,1004.8
2017-05-13T12:07:29.328Z,1004.79
2017-05-13T12:08:29.333Z,1004.86
2017-05-13T12:09:29.342Z,1004.85